sensor_id;sensor_type;location;lat;lon;timestamp;pressure;altitude;pressure_sealevel;temperature;humidity
6524;BME280;3295;38.928;-77.052;2023-01-06T00:01:43;100538.72;;;18.57;49.13
6524;BME280;3295;38.928;-77.052;2023-01-06T00:04:11;100531.75;;;18.50;49.69
6524;BME280;3295;38.928;-77.052;2023-01-06T00:06:39;100535.06;;;18.39;49.18
6524;BME280;3295;38.928;-77.052;2023-01-06T00:09:08;100532.53;;;18.44;49.04
6524;BME280;3295;38.928;-77.052;2023-01-06T00:11:36;100535.13;;;18.45;49.03
6524;BME280;3295;38.928;-77.052;2023-01-06T00:14:04;100530.81;;;18.43;48.75
6524;BME280;3295;38.928;-77.052;2023-01-06T00:16:35;100539.47;;;18.48;48.82
6524;BME280;3295;38.928;-77.052;2023-01-06T00:19:03;100537.72;;;18.47;49.40
6524;BME280;3295;38.928;-77.052;2023-01-06T00:21:31;100538.41;;;18.31;50.07
6524;BME280;3295;38.928;-77.052;2023-01-06T00:23:59;100546.91;;;18.25;52.51
6524;BME280;3295;38.928;-77.052;2023-01-06T00:26:27;100543.44;;;18.23;51.46
6524;BME280;3295;38.928;-77.052;2023-01-06T00:28:55;100538.22;;;18.17;51.40
6524;BME280;3295;38.928;-77.052;2023-01-06T00:31:23;100543.22;;;18.08;50.79
6524;BME280;3295;38.928;-77.052;2023-01-06T00:33:54;100544.16;;;18.11;50.86
6524;BME280;3295;38.928;-77.052;2023-01-06T00:36:22;100538.97;;;18.11;51.52
6524;BME280;3295;38.928;-77.052;2023-01-06T00:38:51;100548.44;;;18.11;51.74
6524;BME280;3295;38.928;-77.052;2023-01-06T00:41:19;100545.03;;;18.14;52.00
6524;BME280;3295;38.928;-77.052;2023-01-06T00:44:05;100539.84;;;18.12;51.61
6524;BME280;3295;38.928;-77.052;2023-01-06T00:46:33;100539.84;;;18.12;50.46
6524;BME280;3295;38.928;-77.052;2023-01-06T00:49:04;100543.28;;;18.11;51.56
6524;BME280;3295;38.928;-77.052;2023-01-06T00:51:32;100544.78;;;17.97;51.92
6524;BME280;3295;38.928;-77.052;2023-01-06T00:54:00;100543.06;;;17.96;52.06
6524;BME280;3295;38.928;-77.052;2023-01-06T00:56:28;100540.28;;;17.84;52.27
6524;BME280;3295;38.928;-77.052;2023-01-06T00:58:56;100541.94;;;17.79;51.93
6524;BME280;3295;38.928;-77.052;2023-01-06T01:01:24;100542.81;;;17.81;51.66
6524;BME280;3295;38.928;-77.052;2023-01-06T01:03:52;100542.88;;;17.84;50.97
6524;BME280;3295;38.928;-77.052;2023-01-06T01:06:21;100540.28;;;17.82;50.96
6524;BME280;3295;38.928;-77.052;2023-01-06T01:08:52;100544.31;;;17.66;51.34
6524;BME280;3295;38.928;-77.052;2023-01-06T01:11:21;100545.94;;;17.61;52.28
6524;BME280;3295;38.928;-77.052;2023-01-06T01:14:05;100553.41;;;17.46;52.23
6524;BME280;3295;38.928;-77.052;2023-01-06T01:16:33;100556.75;;;17.40;52.74
6524;BME280;3295;38.928;-77.052;2023-01-06T01:19:01;100551.25;;;17.21;53.05
6524;BME280;3295;38.928;-77.052;2023-01-06T01:21:31;100560.00;;;17.29;52.92
6524;BME280;3295;38.928;-77.052;2023-01-06T01:23:59;100564.22;;;17.25;55.17
6524;BME280;3295;38.928;-77.052;2023-01-06T01:26:27;100569.91;;;17.09;56.05
6524;BME280;3295;38.928;-77.052;2023-01-06T01:28:54;100572.00;;;16.83;56.95
6524;BME280;3295;38.928;-77.052;2023-01-06T01:31:22;100578.03;;;16.84;57.96
6524;BME280;3295;38.928;-77.052;2023-01-06T01:33:50;100572.97;;;16.88;56.81
6524;BME280;3295;38.928;-77.052;2023-01-06T01:36:18;100572.13;;;16.89;56.71
6524;BME280;3295;38.928;-77.052;2023-01-06T01:38:48;100570.41;;;16.88;56.39
6524;BME280;3295;38.928;-77.052;2023-01-06T01:41:18;100571.22;;;16.87;57.83
6524;BME280;3295;38.928;-77.052;2023-01-06T01:43:55;100575.34;;;16.78;59.49
6524;BME280;3295;38.928;-77.052;2023-01-06T01:46:26;100579.03;;;16.50;63.60
6524;BME280;3295;38.928;-77.052;2023-01-06T01:48:58;100577.63;;;16.26;64.94
6524;BME280;3295;38.928;-77.052;2023-01-06T01:51:32;100579.09;;;16.15;65.48
6524;BME280;3295;38.928;-77.052;2023-01-06T01:54:08;100577.31;;;16.11;65.00
6524;BME280;3295;38.928;-77.052;2023-01-06T01:56:39;100584.25;;;16.15;65.94
6524;BME280;3295;38.928;-77.052;2023-01-06T01:59:09;100574.81;;;16.16;66.46
6524;BME280;3295;38.928;-77.052;2023-01-06T02:01:38;100583.09;;;16.03;65.99
6524;BME280;3295;38.928;-77.052;2023-01-06T02:04:07;100608.06;;;15.72;69.69
6524;BME280;3295;38.928;-77.052;2023-01-06T02:06:35;100621.41;;;15.56;74.85
6524;BME280;3295;38.928;-77.052;2023-01-06T02:09:09;100622.28;;;15.56;77.80
6524;BME280;3295;38.928;-77.052;2023-01-06T02:11:38;100613.97;;;15.67;78.91
6524;BME280;3295;38.928;-77.052;2023-01-06T02:14:11;100625.56;;;15.52;81.09
6524;BME280;3295;38.928;-77.052;2023-01-06T02:16:51;100618.19;;;15.33;86.44
6524;BME280;3295;38.928;-77.052;2023-01-06T02:19:45;100624.91;;;15.28;88.21
6524;BME280;3295;38.928;-77.052;2023-01-06T02:22:33;100625.78;;;15.28;89.42
6524;BME280;3295;38.928;-77.052;2023-01-06T02:25:30;100641.97;;;15.26;90.27
6524;BME280;3295;38.928;-77.052;2023-01-06T02:28:29;100639.94;;;15.46;88.67
6524;BME280;3295;38.928;-77.052;2023-01-06T02:31:22;100646.91;;;15.50;88.09
6524;BME280;3295;38.928;-77.052;2023-01-06T02:34:02;100654.56;;;15.48;87.31
6524;BME280;3295;38.928;-77.052;2023-01-06T02:36:36;100664.56;;;15.38;87.82
6524;BME280;3295;38.928;-77.052;2023-01-06T02:39:21;100662.69;;;15.32;88.81
6524;BME280;3295;38.928;-77.052;2023-01-06T02:41:59;100660.00;;;15.27;89.46
6524;BME280;3295;38.928;-77.052;2023-01-06T02:44:38;100660.69;;;15.22;89.95
6524;BME280;3295;38.928;-77.052;2023-01-06T02:47:14;100666.91;;;14.99;92.28
6524;BME280;3295;38.928;-77.052;2023-01-06T02:49:52;100666.66;;;14.89;94.15
6524;BME280;3295;38.928;-77.052;2023-01-06T02:52:30;100664.81;;;14.85;94.99
6524;BME280;3295;38.928;-77.052;2023-01-06T02:55:03;100666.25;;;14.77;96.03
6524;BME280;3295;38.928;-77.052;2023-01-06T02:57:36;100673.22;;;14.53;97.22
6524;BME280;3295;38.928;-77.052;2023-01-06T03:00:11;100672.97;;;14.72;95.97
6524;BME280;3295;38.928;-77.052;2023-01-06T03:02:46;100675.78;;;14.53;98.94
6524;BME280;3295;38.928;-77.052;2023-01-06T03:05:16;100677.81;;;14.63;96.45
6524;BME280;3295;38.928;-77.052;2023-01-06T03:07:45;100684.69;;;14.64;94.78
6524;BME280;3295;38.928;-77.052;2023-01-06T03:10:16;100690.13;;;14.73;93.14
6524;BME280;3295;38.928;-77.052;2023-01-06T03:12:51;100691.88;;;14.74;93.01
6524;BME280;3295;38.928;-77.052;2023-01-06T03:15:20;100696.38;;;14.83;90.97
6524;BME280;3295;38.928;-77.052;2023-01-06T03:17:51;100701.84;;;14.65;89.97
6524;BME280;3295;38.928;-77.052;2023-01-06T03:20:20;100707.13;;;14.70;89.47
6524;BME280;3295;38.928;-77.052;2023-01-06T03:22:47;100707.16;;;14.71;86.43
6524;BME280;3295;38.928;-77.052;2023-01-06T03:25:16;100715.50;;;14.64;87.02
6524;BME280;3295;38.928;-77.052;2023-01-06T03:27:44;100718.22;;;14.69;87.36
6524;BME280;3295;38.928;-77.052;2023-01-06T03:30:12;100724.88;;;14.62;87.33
6524;BME280;3295;38.928;-77.052;2023-01-06T03:32:46;100723.13;;;14.63;85.33
6524;BME280;3295;38.928;-77.052;2023-01-06T03:35:38;100722.09;;;14.56;86.20
6524;BME280;3295;38.928;-77.052;2023-01-06T03:38:14;100723.00;;;14.58;86.05
6524;BME280;3295;38.928;-77.052;2023-01-06T03:40:52;100725.69;;;14.63;84.19
6524;BME280;3295;38.928;-77.052;2023-01-06T03:43:26;100725.75;;;14.64;82.38
6524;BME280;3295;38.928;-77.052;2023-01-06T03:45:58;100725.09;;;14.70;81.72
6524;BME280;3295;38.928;-77.052;2023-01-06T03:48:46;100728.31;;;14.64;80.61
6524;BME280;3295;38.928;-77.052;2023-01-06T03:51:28;100729.94;;;14.61;80.17
6524;BME280;3295;38.928;-77.052;2023-01-06T03:54:00;100720.56;;;14.61;78.97
6524;BME280;3295;38.928;-77.052;2023-01-06T03:56:35;100723.94;;;14.60;77.04
6524;BME280;3295;38.928;-77.052;2023-01-06T03:59:10;100721.59;;;14.68;77.30
6524;BME280;3295;38.928;-77.052;2023-01-06T04:01:40;100715.94;;;14.51;77.42
6524;BME280;3295;38.928;-77.052;2023-01-06T04:04:08;100709.03;;;14.48;77.39
6524;BME280;3295;38.928;-77.052;2023-01-06T04:06:38;100717.34;;;14.41;75.05
6524;BME280;3295;38.928;-77.052;2023-01-06T04:09:06;100717.91;;;14.33;73.98
6524;BME280;3295;38.928;-77.052;2023-01-06T04:11:34;100713.97;;;14.42;74.51
6524;BME280;3295;38.928;-77.052;2023-01-06T04:14:18;100715.47;;;14.37;75.58
6524;BME280;3295;38.928;-77.052;2023-01-06T04:16:46;100720.53;;;14.34;76.54
6524;BME280;3295;38.928;-77.052;2023-01-06T04:19:14;100726.41;;;14.32;75.49
6524;BME280;3295;38.928;-77.052;2023-01-06T04:21:43;100719.72;;;14.37;73.34
6524;BME280;3295;38.928;-77.052;2023-01-06T04:24:11;100724.78;;;14.34;74.18
6524;BME280;3295;38.928;-77.052;2023-01-06T04:26:39;100720.97;;;14.22;74.85
6524;BME280;3295;38.928;-77.052;2023-01-06T04:29:07;100725.69;;;14.10;72.73
6524;BME280;3295;38.928;-77.052;2023-01-06T04:31:35;100724.16;;;14.15;72.26
6524;BME280;3295;38.928;-77.052;2023-01-06T04:34:03;100712.97;;;14.13;70.62
6524;BME280;3295;38.928;-77.052;2023-01-06T04:36:31;100713.09;;;14.16;71.99
6524;BME280;3295;38.928;-77.052;2023-01-06T04:39:01;100714.03;;;14.18;72.56
6524;BME280;3295;38.928;-77.052;2023-01-06T04:41:28;100707.84;;;14.13;73.22
6524;BME280;3295;38.928;-77.052;2023-01-06T04:43:57;100706.63;;;14.02;72.95
6524;BME280;3295;38.928;-77.052;2023-01-06T04:46:25;100704.19;;;14.05;74.31
6524;BME280;3295;38.928;-77.052;2023-01-06T04:48:53;100698.94;;;14.02;71.57
6524;BME280;3295;38.928;-77.052;2023-01-06T04:51:21;100702.31;;;14.01;74.04
6524;BME280;3295;38.928;-77.052;2023-01-06T04:53:49;100704.88;;;14.01;73.45
6524;BME280;3295;38.928;-77.052;2023-01-06T04:56:18;100699.66;;;13.98;73.86
6524;BME280;3295;38.928;-77.052;2023-01-06T04:58:46;100693.88;;;14.04;72.31
6524;BME280;3295;38.928;-77.052;2023-01-06T05:01:17;100698.41;;;14.12;72.19
6524;BME280;3295;38.928;-77.052;2023-01-06T05:03:44;100688.91;;;14.10;71.24
6524;BME280;3295;38.928;-77.052;2023-01-06T05:06:12;100686.22;;;14.05;70.70
6524;BME280;3295;38.928;-77.052;2023-01-06T05:08:41;100687.88;;;14.03;70.99
6524;BME280;3295;38.928;-77.052;2023-01-06T05:11:12;100689.41;;;13.98;68.87
6524;BME280;3295;38.928;-77.052;2023-01-06T05:13:42;100693.75;;;14.01;70.27
6524;BME280;3295;38.928;-77.052;2023-01-06T05:16:11;100693.09;;;14.06;68.79
6524;BME280;3295;38.928;-77.052;2023-01-06T05:18:41;100688.16;;;14.12;68.43
6524;BME280;3295;38.928;-77.052;2023-01-06T05:21:09;100677.72;;;14.08;67.26
6524;BME280;3295;38.928;-77.052;2023-01-06T05:23:37;100686.50;;;14.14;65.37
6524;BME280;3295;38.928;-77.052;2023-01-06T05:26:05;100663.03;;;14.02;64.76
6524;BME280;3295;38.928;-77.052;2023-01-06T05:28:33;100681.59;;;14.20;64.59
6524;BME280;3295;38.928;-77.052;2023-01-06T05:31:04;100686.91;;;14.27;64.21
6524;BME280;3295;38.928;-77.052;2023-01-06T05:33:35;100691.84;;;14.20;64.17
6524;BME280;3295;38.928;-77.052;2023-01-06T05:36:09;100687.34;;;14.13;64.64
6524;BME280;3295;38.928;-77.052;2023-01-06T05:38:37;100691.66;;;14.14;65.19
6524;BME280;3295;38.928;-77.052;2023-01-06T05:41:05;100686.63;;;14.17;64.28
6524;BME280;3295;38.928;-77.052;2023-01-06T05:43:34;100681.50;;;14.17;63.44
6524;BME280;3295;38.928;-77.052;2023-01-06T05:46:06;100688.91;;;14.10;63.51
6524;BME280;3295;38.928;-77.052;2023-01-06T05:48:35;100683.72;;;14.07;62.49
6524;BME280;3295;38.928;-77.052;2023-01-06T05:51:04;100684.47;;;14.04;62.27
6524;BME280;3295;38.928;-77.052;2023-01-06T05:53:33;100680.69;;;13.93;61.77
6524;BME280;3295;38.928;-77.052;2023-01-06T05:56:01;100681.41;;;13.89;61.67
6524;BME280;3295;38.928;-77.052;2023-01-06T05:58:30;100683.03;;;13.87;60.60
6524;BME280;3295;38.928;-77.052;2023-01-06T06:00:59;100675.34;;;13.87;60.58
6524;BME280;3295;38.928;-77.052;2023-01-06T06:03:29;100672.16;;;13.94;60.99
6524;BME280;3295;38.928;-77.052;2023-01-06T06:06:01;100680.06;;;14.00;61.48
6524;BME280;3295;38.928;-77.052;2023-01-06T06:08:29;100675.16;;;14.06;60.23
6524;BME280;3295;38.928;-77.052;2023-01-06T06:11:01;100668.06;;;13.99;59.91
6524;BME280;3295;38.928;-77.052;2023-01-06T06:13:29;100663.63;;;13.94;59.05
6524;BME280;3295;38.928;-77.052;2023-01-06T06:16:03;100667.13;;;13.97;58.75
6524;BME280;3295;38.928;-77.052;2023-01-06T06:18:33;100671.59;;;14.03;57.85
6524;BME280;3295;38.928;-77.052;2023-01-06T06:21:02;100664.91;;;14.08;57.99
6524;BME280;3295;38.928;-77.052;2023-01-06T06:23:30;100658.03;;;14.05;58.02
6524;BME280;3295;38.928;-77.052;2023-01-06T06:25:58;100662.50;;;14.12;58.77
6524;BME280;3295;38.928;-77.052;2023-01-06T06:28:28;100659.13;;;14.13;57.55
6524;BME280;3295;38.928;-77.052;2023-01-06T06:31:02;100660.97;;;14.17;57.59
6524;BME280;3295;38.928;-77.052;2023-01-06T06:33:33;100660.66;;;14.08;57.46
6524;BME280;3295;38.928;-77.052;2023-01-06T06:36:02;100657.09;;;14.03;58.26
6524;BME280;3295;38.928;-77.052;2023-01-06T06:38:30;100665.59;;;14.02;58.47
6524;BME280;3295;38.928;-77.052;2023-01-06T06:40:58;100660.59;;;14.05;58.87
6524;BME280;3295;38.928;-77.052;2023-01-06T06:43:26;100650.50;;;14.11;58.74
6524;BME280;3295;38.928;-77.052;2023-01-06T06:45:54;100658.41;;;14.17;58.80
6524;BME280;3295;38.928;-77.052;2023-01-06T06:48:22;100654.19;;;14.19;59.04
6524;BME280;3295;38.928;-77.052;2023-01-06T06:50:57;100651.75;;;14.24;59.57
6524;BME280;3295;38.928;-77.052;2023-01-06T06:53:26;100645.38;;;14.11;59.86
6524;BME280;3295;38.928;-77.052;2023-01-06T06:55:54;100639.84;;;13.99;61.31
6524;BME280;3295;38.928;-77.052;2023-01-06T06:58:23;100656.88;;;13.97;61.74
6524;BME280;3295;38.928;-77.052;2023-01-06T07:00:51;100658.78;;;14.03;62.43
6524;BME280;3295;38.928;-77.052;2023-01-06T07:03:19;100664.56;;;13.97;63.90
6524;BME280;3295;38.928;-77.052;2023-01-06T07:05:48;100672.38;;;14.00;64.49
6524;BME280;3295;38.928;-77.052;2023-01-06T07:08:18;100662.78;;;13.95;65.68
6524;BME280;3295;38.928;-77.052;2023-01-06T07:10:46;100663.47;;;13.89;66.46
6524;BME280;3295;38.928;-77.052;2023-01-06T07:13:14;100677.22;;;13.91;67.07
6524;BME280;3295;38.928;-77.052;2023-01-06T07:15:42;100682.53;;;13.97;67.95
6524;BME280;3295;38.928;-77.052;2023-01-06T07:18:10;100681.69;;;13.98;68.11
6524;BME280;3295;38.928;-77.052;2023-01-06T07:20:38;100692.00;;;14.00;68.34
6524;BME280;3295;38.928;-77.052;2023-01-06T07:23:06;100696.56;;;14.08;68.17
6524;BME280;3295;38.928;-77.052;2023-01-06T07:25:35;100696.00;;;14.17;68.14
6524;BME280;3295;38.928;-77.052;2023-01-06T07:28:03;100700.38;;;14.19;68.11
6524;BME280;3295;38.928;-77.052;2023-01-06T07:30:32;100704.47;;;14.14;68.44
6524;BME280;3295;38.928;-77.052;2023-01-06T07:33:00;100705.56;;;14.22;67.87
6524;BME280;3295;38.928;-77.052;2023-01-06T07:35:28;100709.16;;;14.28;68.78
6524;BME280;3295;38.928;-77.052;2023-01-06T07:38:02;100707.63;;;14.33;68.05
6524;BME280;3295;38.928;-77.052;2023-01-06T07:40:30;100715.19;;;14.28;68.46
6524;BME280;3295;38.928;-77.052;2023-01-06T07:43:02;100723.75;;;14.29;69.02
6524;BME280;3295;38.928;-77.052;2023-01-06T07:45:30;100726.53;;;14.35;68.39
6524;BME280;3295;38.928;-77.052;2023-01-06T07:47:58;100727.47;;;14.38;67.99
6524;BME280;3295;38.928;-77.052;2023-01-06T07:50:27;100728.25;;;14.36;68.33
6524;BME280;3295;38.928;-77.052;2023-01-06T07:52:56;100731.19;;;14.46;70.75
6524;BME280;3295;38.928;-77.052;2023-01-06T07:55:25;100737.28;;;14.50;69.68
6524;BME280;3295;38.928;-77.052;2023-01-06T07:57:53;100735.25;;;14.40;69.74
6524;BME280;3295;38.928;-77.052;2023-01-06T08:00:22;100734.34;;;14.39;69.89
6524;BME280;3295;38.928;-77.052;2023-01-06T08:02:50;100739.63;;;14.42;68.94
6524;BME280;3295;38.928;-77.052;2023-01-06T08:05:18;100731.88;;;14.41;68.51
6524;BME280;3295;38.928;-77.052;2023-01-06T08:07:46;100740.59;;;14.46;66.86
6524;BME280;3295;38.928;-77.052;2023-01-06T08:10:14;100738.84;;;14.45;68.14
6524;BME280;3295;38.928;-77.052;2023-01-06T08:12:42;100735.41;;;14.44;69.99
6524;BME280;3295;38.928;-77.052;2023-01-06T08:15:10;100736.84;;;14.38;70.83
6524;BME280;3295;38.928;-77.052;2023-01-06T08:17:41;100738.44;;;14.33;72.73
6524;BME280;3295;38.928;-77.052;2023-01-06T08:20:10;100743.34;;;14.27;70.45
6524;BME280;3295;38.928;-77.052;2023-01-06T08:22:37;100738.09;;;14.23;70.92
6524;BME280;3295;38.928;-77.052;2023-01-06T08:25:06;100739.75;;;14.21;71.14
6524;BME280;3295;38.928;-77.052;2023-01-06T08:27:34;100741.59;;;14.26;68.86
6524;BME280;3295;38.928;-77.052;2023-01-06T08:30:03;100738.22;;;14.27;71.82
6524;BME280;3295;38.928;-77.052;2023-01-06T08:32:31;100727.84;;;14.23;71.42
6524;BME280;3295;38.928;-77.052;2023-01-06T08:35:01;100731.59;;;14.08;74.60
6524;BME280;3295;38.928;-77.052;2023-01-06T08:37:29;100733.03;;;14.00;75.17
6524;BME280;3295;38.928;-77.052;2023-01-06T08:39:57;100730.31;;;13.95;75.31
6524;BME280;3295;38.928;-77.052;2023-01-06T08:42:25;100732.78;;;13.92;73.14
6524;BME280;3295;38.928;-77.052;2023-01-06T08:44:53;100731.13;;;13.94;71.82
6524;BME280;3295;38.928;-77.052;2023-01-06T08:47:21;100726.84;;;13.93;73.94
6524;BME280;3295;38.928;-77.052;2023-01-06T08:49:49;100731.97;;;13.93;78.63
6524;BME280;3295;38.928;-77.052;2023-01-06T08:52:19;100734.94;;;13.80;81.51
6524;BME280;3295;38.928;-77.052;2023-01-06T08:54:49;100731.91;;;13.66;85.57
6524;BME280;3295;38.928;-77.052;2023-01-06T08:57:17;100742.66;;;13.58;81.78
6524;BME280;3295;38.928;-77.052;2023-01-06T08:59:45;100730.91;;;13.63;80.90
6524;BME280;3295;38.928;-77.052;2023-01-06T09:02:13;100737.78;;;13.64;78.96
6524;BME280;3295;38.928;-77.052;2023-01-06T09:04:41;100725.91;;;13.66;77.79
6524;BME280;3295;38.928;-77.052;2023-01-06T09:07:09;100726.09;;;13.72;77.92
6524;BME280;3295;38.928;-77.052;2023-01-06T09:09:39;100730.50;;;13.76;81.10
6524;BME280;3295;38.928;-77.052;2023-01-06T09:12:07;100733.06;;;13.76;82.32
6524;BME280;3295;38.928;-77.052;2023-01-06T09:14:35;100728.66;;;13.72;80.24
6524;BME280;3295;38.928;-77.052;2023-01-06T09:17:03;100732.22;;;13.75;79.23
6524;BME280;3295;38.928;-77.052;2023-01-06T09:19:31;100724.47;;;13.74;77.67
6524;BME280;3295;38.928;-77.052;2023-01-06T09:21:59;100697.72;;;13.66;76.05
6524;BME280;3295;38.928;-77.052;2023-01-06T09:24:27;100729.13;;;13.85;80.51
6524;BME280;3295;38.928;-77.052;2023-01-06T09:26:56;100734.72;;;13.74;81.28
6524;BME280;3295;38.928;-77.052;2023-01-06T09:29:24;100726.09;;;13.72;83.03
6524;BME280;3295;38.928;-77.052;2023-01-06T09:31:52;100725.03;;;13.65;84.04
6524;BME280;3295;38.928;-77.052;2023-01-06T09:34:20;100720.78;;;13.67;84.05
6524;BME280;3295;38.928;-77.052;2023-01-06T09:36:48;100719.22;;;13.71;78.76
6524;BME280;3295;38.928;-77.052;2023-01-06T09:39:16;100709.66;;;13.65;81.66
6524;BME280;3295;38.928;-77.052;2023-01-06T09:42:05;100727.53;;;13.64;85.35
6524;BME280;3295;38.928;-77.052;2023-01-06T09:44:45;100719.50;;;13.55;86.30
6524;BME280;3295;38.928;-77.052;2023-01-06T09:47:19;100720.00;;;13.44;86.12
6524;BME280;3295;38.928;-77.052;2023-01-06T09:49:51;100729.00;;;13.33;88.23
6524;BME280;3295;38.928;-77.052;2023-01-06T09:52:25;100721.41;;;13.36;87.63
6524;BME280;3295;38.928;-77.052;2023-01-06T09:54:57;100719.69;;;13.35;87.07
6524;BME280;3295;38.928;-77.052;2023-01-06T09:57:32;100722.50;;;13.43;85.62
6524;BME280;3295;38.928;-77.052;2023-01-06T10:00:05;100720.22;;;13.50;84.40
6524;BME280;3295;38.928;-77.052;2023-01-06T10:02:36;100721.97;;;13.51;85.57
6524;BME280;3295;38.928;-77.052;2023-01-06T10:05:17;100732.09;;;13.48;86.56
6524;BME280;3295;38.928;-77.052;2023-01-06T10:07:50;100732.00;;;13.45;86.26
6524;BME280;3295;38.928;-77.052;2023-01-06T10:10:30;100734.28;;;13.38;86.78
6524;BME280;3295;38.928;-77.052;2023-01-06T10:13:16;100730.25;;;13.44;87.89
6524;BME280;3295;38.928;-77.052;2023-01-06T10:15:53;100740.00;;;13.55;86.19
6524;BME280;3295;38.928;-77.052;2023-01-06T10:18:31;100742.03;;;13.63;85.75
6524;BME280;3295;38.928;-77.052;2023-01-06T10:21:07;100739.84;;;13.50;87.06
6524;BME280;3295;38.928;-77.052;2023-01-06T10:26:33;100744.03;;;13.24;90.31
6524;BME280;3295;38.928;-77.052;2023-01-06T10:29:13;100761.72;;;13.18;90.62
6524;BME280;3295;38.928;-77.052;2023-01-06T10:31:43;100765.09;;;13.17;92.92
6524;BME280;3295;38.928;-77.052;2023-01-06T10:34:18;100763.72;;;13.27;93.32
6524;BME280;3295;38.928;-77.052;2023-01-06T10:36:52;100763.72;;;13.25;93.44
6524;BME280;3295;38.928;-77.052;2023-01-06T10:39:24;100769.66;;;13.26;93.71
6524;BME280;3295;38.928;-77.052;2023-01-06T10:41:59;100770.78;;;13.32;93.40
6524;BME280;3295;38.928;-77.052;2023-01-06T10:44:44;100771.94;;;13.40;93.01
6524;BME280;3295;38.928;-77.052;2023-01-06T10:47:16;100782.09;;;13.37;91.91
6524;BME280;3295;38.928;-77.052;2023-01-06T10:49:47;100783.41;;;13.28;91.19
6524;BME280;3295;38.928;-77.052;2023-01-06T10:52:15;100785.81;;;13.23;91.26
6524;BME280;3295;38.928;-77.052;2023-01-06T10:54:43;100795.81;;;13.17;92.00
6524;BME280;3295;38.928;-77.052;2023-01-06T10:57:15;100800.78;;;13.14;92.77
6524;BME280;3295;38.928;-77.052;2023-01-06T11:00:08;100799.19;;;13.16;93.47
6524;BME280;3295;38.928;-77.052;2023-01-06T11:02:42;100801.38;;;13.07;92.97
6524;BME280;3295;38.928;-77.052;2023-01-06T11:05:14;100820.91;;;12.82;95.95
6524;BME280;3295;38.928;-77.052;2023-01-06T11:07:48;100814.31;;;12.89;95.42
6524;BME280;3295;38.928;-77.052;2023-01-06T11:10:25;100819.84;;;12.77;94.46
6524;BME280;3295;38.928;-77.052;2023-01-06T11:12:54;100830.56;;;12.90;95.81
6524;BME280;3295;38.928;-77.052;2023-01-06T11:15:30;100812.19;;;13.00;88.25
6524;BME280;3295;38.928;-77.052;2023-01-06T11:18:01;100825.22;;;12.84;95.14
6524;BME280;3295;38.928;-77.052;2023-01-06T11:20:31;100824.94;;;12.77;96.84
6524;BME280;3295;38.928;-77.052;2023-01-06T11:23:18;100846.81;;;12.69;93.16
6524;BME280;3295;38.928;-77.052;2023-01-06T11:26:03;100839.75;;;12.85;90.12
6524;BME280;3295;38.928;-77.052;2023-01-06T11:28:32;100871.31;;;12.85;87.52
6524;BME280;3295;38.928;-77.052;2023-01-06T11:31:03;100852.81;;;12.70;84.41
6524;BME280;3295;38.928;-77.052;2023-01-06T11:33:34;100877.50;;;12.90;82.41
6524;BME280;3295;38.928;-77.052;2023-01-06T11:36:07;100879.94;;;12.66;77.40
6524;BME280;3295;38.928;-77.052;2023-01-06T11:38:43;100884.06;;;12.84;75.86
6524;BME280;3295;38.928;-77.052;2023-01-06T11:41:14;100882.75;;;12.93;76.08
6524;BME280;3295;38.928;-77.052;2023-01-06T11:43:47;100891.38;;;12.95;74.02
6524;BME280;3295;38.928;-77.052;2023-01-06T11:46:20;100892.25;;;12.96;71.67
6524;BME280;3295;38.928;-77.052;2023-01-06T11:48:59;100886.56;;;13.03;69.82
6524;BME280;3295;38.928;-77.052;2023-01-06T11:51:44;100891.31;;;12.94;68.51
6524;BME280;3295;38.928;-77.052;2023-01-06T11:54:32;100892.53;;;13.03;67.19
6524;BME280;3295;38.928;-77.052;2023-01-06T11:57:11;100900.97;;;13.01;65.34
6524;BME280;3295;38.928;-77.052;2023-01-06T11:59:49;100911.22;;;13.01;64.53
6524;BME280;3295;38.928;-77.052;2023-01-06T12:02:24;100906.22;;;13.04;63.20
6524;BME280;3295;38.928;-77.052;2023-01-06T12:04:55;100912.84;;;12.99;61.66
6524;BME280;3295;38.928;-77.052;2023-01-06T12:07:27;100920.72;;;12.82;60.32
6524;BME280;3295;38.928;-77.052;2023-01-06T12:10:02;100920.50;;;12.99;59.82
6524;BME280;3295;38.928;-77.052;2023-01-06T12:12:31;100926.13;;;12.90;59.92
6524;BME280;3295;38.928;-77.052;2023-01-06T12:14:59;100920.66;;;12.81;58.93
6524;BME280;3295;38.928;-77.052;2023-01-06T12:17:36;100919.56;;;12.76;57.64
6524;BME280;3295;38.928;-77.052;2023-01-06T12:20:13;100928.56;;;12.66;56.51
6524;BME280;3295;38.928;-77.052;2023-01-06T12:22:45;100935.28;;;12.64;56.66
6524;BME280;3295;38.928;-77.052;2023-01-06T12:25:18;100945.53;;;12.64;55.97
6524;BME280;3295;38.928;-77.052;2023-01-06T12:27:49;100943.78;;;12.63;55.38
6524;BME280;3295;38.928;-77.052;2023-01-06T12:30:22;100941.22;;;12.63;55.12
6524;BME280;3295;38.928;-77.052;2023-01-06T12:32:59;100941.63;;;12.53;53.99
6524;BME280;3295;38.928;-77.052;2023-01-06T12:35:28;100944.34;;;12.37;55.84
6524;BME280;3295;38.928;-77.052;2023-01-06T12:38:02;100945.53;;;12.64;54.97
6524;BME280;3295;38.928;-77.052;2023-01-06T12:40:36;100952.25;;;12.62;54.62
6524;BME280;3295;38.928;-77.052;2023-01-06T12:43:14;100952.28;;;12.43;53.57
6524;BME280;3295;38.928;-77.052;2023-01-06T12:45:51;100957.13;;;12.56;54.00
6524;BME280;3295;38.928;-77.052;2023-01-06T12:48:30;100949.84;;;12.46;53.31
6524;BME280;3295;38.928;-77.052;2023-01-06T12:51:04;100953.94;;;12.62;53.65
6524;BME280;3295;38.928;-77.052;2023-01-06T12:53:38;100959.00;;;12.60;52.58
6524;BME280;3295;38.928;-77.052;2023-01-06T12:56:21;100961.75;;;12.65;52.70
6524;BME280;3295;38.928;-77.052;2023-01-06T12:59:01;100963.28;;;12.61;52.23
6524;BME280;3295;38.928;-77.052;2023-01-06T13:01:38;100967.47;;;12.59;52.38
6524;BME280;3295;38.928;-77.052;2023-01-06T13:04:43;100965.19;;;12.46;51.69
6524;BME280;3295;38.928;-77.052;2023-01-06T13:07:29;100976.38;;;12.29;52.34
6524;BME280;3295;38.928;-77.052;2023-01-06T13:10:14;100978.38;;;12.36;51.46
6524;BME280;3295;38.928;-77.052;2023-01-06T13:12:54;100980.81;;;12.33;51.20
6524;BME280;3295;38.928;-77.052;2023-01-06T13:15:29;100977.19;;;12.28;51.19
6524;BME280;3295;38.928;-77.052;2023-01-06T13:18:04;100981.75;;;12.35;50.79